Time;durP1;ratioP1;P1;durP2;ratioP2;P2;SDS_P1;SDS_P2;PMS_P1;PMS_P2;Temp;Humidity;BMP_temperature;BMP_pressure;BME280_temperature;BME280_humidity;BME280_pressure;Samples;Min_cycle;Max_cycle;Signal;HPM_P1;HPM_P2
2021/10/02 00:37:48;;;;;;;;;;;12.70;1.00;;;;;;5049389;28;20381;-62
2021/10/02 00:45:42;;;;;;;;;;;12.60;1.00;;;;;;5048858;28;19970;-63
2021/10/02 00:48:09;;;;;;;;;;;12.60;1.00;;;;;;5049398;28;19913;-62
2021/10/02 00:50:34;;;;;;;;;;;12.60;1.00;;;;;;5049097;28;19909;-61
2021/10/02 00:53:00;;;;;;;;;;;12.60;1.00;;;;;;5048165;28;19913;-61
2021/10/02 00:55:25;;;;;;;;;;;12.60;1.00;;;;;;5048623;28;20851;-60
2021/10/02 00:57:51;;;;;;;;;;;12.50;1.00;;;;;;5048373;28;20488;-63
2021/10/02 01:00:16;;;;;;;;;;;12.50;1.00;;;;;;5047998;28;19924;-61
2021/10/02 01:02:42;;;;;;;;;;;12.50;1.00;;;;;;5045560;28;19916;-63
2021/10/02 01:05:10;;;;;;;;;;;12.40;1.00;;;;;;5031783;28;19921;-64
2021/10/02 01:07:36;;;;;;;;;;;12.40;1.00;;;;;;5028631;28;19913;-62
2021/10/02 01:10:20;;;;;;;;;;;12.40;1.00;;;;;;5032180;28;19991;-61
2021/10/02 01:13:04;;;;;;;;;;;12.30;1.00;;;;;;5047578;28;19976;-63
2021/10/02 01:15:35;;;;;;;;;;;12.30;1.00;;;;;;5047394;28;19913;-63
2021/10/02 01:18:07;;;;;;;;;;;12.20;1.00;;;;;;5048380;28;19909;-63
2021/10/02 01:20:51;;;;;;;;;;;12.20;1.00;;;;;;5047729;28;19909;-63
2021/10/02 01:23:26;;;;;;;;;;;12.20;1.00;;;;;;5047504;28;19916;-60
2021/10/02 01:25:51;;;;;;;;;;;12.20;1.00;;;;;;5052028;28;19958;-62
2021/10/02 01:28:18;;;;;;;;;;;12.10;1.00;;;;;;5051597;28;19909;-64
2021/10/02 01:36:57;;;;;;;;;;;12.00;1.00;;;;;;5046629;28;19912;-63
2021/10/02 01:47:41;;;;;;;;;;;12.00;1.00;;;;;;5051708;28;20003;-63
2021/10/02 01:50:08;;;;;;;;;;;12.00;1.00;;;;;;5050930;28;19910;-64
2021/10/02 01:52:37;;;;;;;;;;;12.00;1.00;;;;;;5050775;28;19942;-64
2021/10/02 01:55:04;;;;;;;;;;;12.00;1.00;;;;;;5051261;28;19959;-63
2021/10/02 01:57:34;;;;;;;;;;;12.00;1.00;;;;;;5051372;28;19978;-63
2021/10/02 02:00:04;;;;;;;;;;;12.00;1.00;;;;;;5049824;28;19939;-63
2021/10/02 02:02:31;;;;;;;;;;;12.00;1.00;;;;;;5050622;28;19959;-63
2021/10/02 02:04:57;;;;;;;;;;;12.00;1.00;;;;;;5036170;28;19967;-62
2021/10/02 02:07:24;;;;;;;;;;;12.10;1.00;;;;;;5031268;28;19913;-63
2021/10/02 02:09:51;;;;;;;;;;;12.00;1.00;;;;;;5032864;28;19912;-63
2021/10/02 02:12:17;;;;;;;;;;;12.10;1.00;;;;;;5049795;28;19963;-63
2021/10/02 02:14:43;;;;;;;;;;;12.00;1.00;;;;;;5050324;28;19916;-63
2021/10/02 02:17:10;;;;;;;;;;;12.10;1.00;;;;;;5051337;28;20000;-63
2021/10/02 02:19:35;;;;;;;;;;;12.00;1.00;;;;;;5050979;28;19955;-62
2021/10/02 02:22:02;;;;;;;;;;;12.10;1.00;;;;;;5049777;28;19952;-63
2021/10/02 02:24:27;;;;;;;;;;;12.00;1.00;;;;;;5050716;28;19921;-62
2021/10/02 02:26:53;;;;;;;;;;;12.10;1.00;;;;;;5050774;28;19909;-62
2021/10/02 02:29:19;;;;;;;;;;;12.10;1.00;;;;;;5050550;28;20314;-63
2021/10/02 02:31:46;;;;;;;;;;;12.10;1.00;;;;;;5048993;28;20285;-63
2021/10/02 02:34:11;;;;;;;;;;;12.10;1.00;;;;;;5050249;28;20345;-64
2021/10/02 02:36:37;;;;;;;;;;;12.10;1.00;;;;;;5049032;28;19909;-63
2021/10/02 02:39:03;;;;;;;;;;;12.10;1.00;;;;;;5050483;28;20005;-61
2021/10/02 02:41:28;;;;;;;;;;;12.10;1.00;;;;;;5050353;28;19913;-64
2021/10/02 02:43:53;;;;;;;;;;;12.10;1.00;;;;;;5049094;28;20334;-62
2021/10/02 02:46:33;;;;;;;;;;;12.00;1.00;;;;;;5049809;28;20007;-63
2021/10/02 02:49:18;;;;;;;;;;;12.00;1.00;;;;;;5050601;28;20075;-62
2021/10/02 02:51:53;;;;;;;;;;;12.10;1.00;;;;;;5049854;28;19916;-61
2021/10/02 02:54:26;;;;;;;;;;;12.10;1.00;;;;;;5050160;28;19925;-60
2021/10/02 02:56:52;;;;;;;;;;;12.10;1.00;;;;;;5050335;28;19917;-59
2021/10/02 02:59:24;;;;;;;;;;;12.10;1.00;;;;;;5049520;28;19913;-61
2021/10/02 03:01:51;;;;;;;;;;;12.10;1.00;;;;;;5048572;28;20262;-61
2021/10/02 03:04:18;;;;;;;;;;;12.10;1.00;;;;;;5049825;28;19917;-62
2021/10/02 03:06:47;;;;;;;;;;;12.10;1.00;;;;;;5049724;28;19909;-62
2021/10/02 03:09:13;;;;;;;;;;;12.00;1.00;;;;;;5049886;28;19940;-62
2021/10/02 03:11:39;;;;;;;;;;;12.10;1.00;;;;;;5049486;28;20361;-62
2021/10/02 03:14:05;;;;;;;;;;;12.00;1.00;;;;;;5048512;28;19916;-62
2021/10/02 03:16:31;;;;;;;;;;;12.00;1.00;;;;;;5048905;28;20326;-62
2021/10/02 03:18:59;;;;;;;;;;;12.00;1.00;;;;;;5049808;28;19944;-62
2021/10/02 03:21:25;;;;;;;;;;;12.00;1.00;;;;;;5049508;28;19967;-62
2021/10/02 03:23:51;;;;;;;;;;;12.10;1.00;;;;;;5049107;28;19928;-61
2021/10/02 03:26:17;;;;;;;;;;;12.00;1.00;;;;;;5049221;28;20699;-62
2021/10/02 03:28:43;;;;;;;;;;;12.00;1.00;;;;;;5029456;28;19916;-61
2021/10/02 03:31:08;;;;;;;;;;;12.00;1.00;;;;;;5028587;28;19917;-62
2021/10/02 03:33:34;;;;;;;;;;;12.00;1.00;;;;;;5029198;28;19913;-62
2021/10/02 03:36:00;;;;;;;;;;;12.00;1.00;;;;;;5029046;28;19909;-62
2021/10/02 03:38:26;;;;;;;;;;;12.00;1.00;;;;;;5029394;28;19912;-63
2021/10/02 03:40:57;;;;;;;;;;;12.00;1.00;;;;;;5029499;28;20346;-62
2021/10/02 03:43:22;;;;;;;;;;;12.00;1.00;;;;;;5028299;28;20444;-62
2021/10/02 03:45:48;;;;;;;;;;;12.10;1.00;;;;;;5028504;28;19992;-62
2021/10/02 03:48:13;;;;;;;;;;;12.00;1.00;;;;;;5029113;28;19913;-60
2021/10/02 03:50:39;;;;;;;;;;;12.10;1.00;;;;;;5029401;28;19971;-62
2021/10/02 03:53:04;;;;;;;;;;;12.10;1.00;;;;;;5028573;28;19910;-61
2021/10/02 03:55:30;;;;;;;;;;;12.00;1.00;;;;;;5029238;28;19920;-62
2021/10/02 03:57:55;;;;;;;;;;;12.00;1.00;;;;;;5029052;28;19909;-62
2021/10/02 04:00:24;;;;;;;;;;;12.00;1.00;;;;;;5027995;28;19998;-62
2021/10/02 04:02:49;;;;;;;;;;;12.00;1.00;;;;;;5028342;28;19917;-61
2021/10/02 04:05:15;;;;;;;;;;;12.00;1.00;;;;;;5043643;28;19920;-62
2021/10/02 04:07:40;;;;;;;;;;;12.00;1.00;;;;;;5037558;28;19913;-62
2021/10/02 04:10:06;;;;;;;;;;;12.00;1.00;;;;;;5040619;28;20386;-62
2021/10/02 04:12:32;;;;;;;;;;;11.90;1.00;;;;;;5033291;28;20317;-62
2021/10/02 04:14:57;;;;;;;;;;;11.90;1.00;;;;;;5037181;28;19925;-62
2021/10/02 04:17:23;;;;;;;;;;;11.90;1.00;;;;;;5046562;28;19995;-61
2021/10/02 04:19:49;;;;;;;;;;;11.90;1.00;;;;;;5048879;28;19963;-61
2021/10/02 04:22:14;;;;;;;;;;;11.80;1.00;;;;;;5047650;28;20381;-62
2021/10/02 04:24:40;;;;;;;;;;;11.80;1.00;;;;;;5047761;28;20007;-62
2021/10/02 04:27:06;;;;;;;;;;;11.80;1.00;;;;;;5041696;28;20286;-62
2021/10/02 04:29:32;;;;;;;;;;;11.70;1.00;;;;;;5028027;28;20570;-62
2021/10/02 04:31:58;;;;;;;;;;;11.70;1.00;;;;;;5027680;28;20004;-61
2021/10/02 04:34:23;;;;;;;;;;;11.70;1.00;;;;;;5028368;28;19913;-62
2021/10/02 04:36:49;;;;;;;;;;;11.70;1.00;;;;;;5028013;28;19909;-62
2021/10/02 04:39:14;;;;;;;;;;;11.60;1.00;;;;;;5028667;28;20294;-62
2021/10/02 04:41:40;;;;;;;;;;;11.60;1.00;;;;;;5040106;28;19916;-62
2021/10/02 04:44:05;;;;;;;;;;;11.60;1.00;;;;;;5047178;28;20361;-62
2021/10/02 04:46:31;;;;;;;;;;;11.60;1.00;;;;;;5047572;28;20321;-62
2021/10/02 04:48:56;;;;;;;;;;;11.60;1.00;;;;;;5048210;28;20011;-62
2021/10/02 04:51:22;;;;;;;;;;;11.60;1.00;;;;;;5047786;28;19920;-61
2021/10/02 04:53:47;;;;;;;;;;;11.60;1.00;;;;;;5047517;28;19985;-62
2021/10/02 04:56:14;;;;;;;;;;;11.60;1.00;;;;;;5048070;28;19909;-62
2021/10/02 04:58:40;;;;;;;;;;;11.50;1.00;;;;;;5048737;28;20383;-61
2021/10/02 05:01:06;;;;;;;;;;;11.50;1.00;;;;;;5051802;28;19935;-61
2021/10/02 05:03:36;;;;;;;;;;;11.50;1.00;;;;;;5051802;28;19913;-62
2021/10/02 05:06:02;;;;;;;;;;;11.60;1.00;;;;;;5052114;28;19909;-62
2021/10/02 05:08:28;;;;;;;;;;;11.60;1.00;;;;;;5052455;28;19913;-62
2021/10/02 05:10:53;;;;;;;;;;;11.60;1.00;;;;;;5052462;28;19919;-63
2021/10/02 05:13:19;;;;;;;;;;;11.70;1.00;;;;;;5051289;28;19913;-61
2021/10/02 05:15:44;;;;;;;;;;;11.70;1.00;;;;;;5051831;28;19909;-62
2021/10/02 05:18:10;;;;;;;;;;;11.80;1.00;;;;;;5052607;28;19908;-61
2021/10/02 05:20:35;;;;;;;;;;;11.80;1.00;;;;;;5051978;28;20281;-62
2021/10/02 05:23:01;;;;;;;;;;;11.80;1.00;;;;;;5050949;28;20054;-62
2021/10/02 05:25:26;;;;;;;;;;;11.80;1.00;;;;;;5076648;22;19936;-68
2021/10/02 05:27:52;;;;;;;;;;;11.80;1.00;;;;;;5051483;28;20003;-68
2021/10/02 05:30:17;;;;;;;;;;;11.80;1.00;;;;;;5051375;28;19939;-69
2021/10/02 05:32:43;;;;;;;;;;;11.80;1.00;;;;;;5051218;28;19974;-69
2021/10/02 05:35:08;;;;;;;;;;;11.80;1.00;;;;;;5050913;28;20242;-69
2021/10/02 05:37:35;;;;;;;;;;;11.70;1.00;;;;;;5051901;28;19939;-66
2021/10/02 05:40:00;;;;;;;;;;;11.70;1.00;;;;;;5051963;28;19913;-66
2021/10/02 05:42:26;;;;;;;;;;;11.60;1.00;;;;;;5050790;28;19912;-67
2021/10/02 05:44:52;;;;;;;;;;;11.70;1.00;;;;;;5050704;28;19954;-66
2021/10/02 05:47:17;;;;;;;;;;;11.70;1.00;;;;;;5048337;28;20526;-68
2021/10/02 05:49:43;;;;;;;;;;;11.80;1.00;;;;;;5050926;28;19928;-68
2021/10/02 05:52:12;;;;;;;;;;;11.90;1.00;;;;;;5050235;28;20318;-67
2021/10/02 05:54:38;;;;;;;;;;;12.00;1.00;;;;;;5050990;28;19916;-68
2021/10/02 05:57:04;;;;;;;;;;;12.10;1.00;;;;;;5050610;28;20349;-68
2021/10/02 05:59:29;;;;;;;;;;;12.10;1.00;;;;;;5050168;28;19909;-67
2021/10/02 06:01:55;;;;;;;;;;;12.20;1.00;;;;;;5050086;28;19924;-67
2021/10/02 06:04:20;;;;;;;;;;;12.30;1.00;;;;;;5050915;28;19948;-65
2021/10/02 06:06:46;;;;;;;;;;;12.30;1.00;;;;;;5050570;28;19974;-66
2021/10/02 06:09:11;;;;;;;;;;;12.40;1.00;;;;;;5042165;28;19913;-66
2021/10/02 06:11:37;;;;;;;;;;;12.40;1.00;;;;;;5047210;28;19913;-66
2021/10/02 06:14:02;;;;;;;;;;;12.40;1.00;;;;;;5049964;28;19920;-67
2021/10/02 06:16:28;;;;;;;;;;;12.40;1.00;;;;;;5050044;28;19920;-66
2021/10/02 06:18:54;;;;;;;;;;;12.30;1.00;;;;;;5050905;28;19912;-66
2021/10/02 06:21:19;;;;;;;;;;;12.30;1.00;;;;;;5054160;28;19913;-66
2021/10/02 06:23:45;;;;;;;;;;;12.40;1.00;;;;;;5057963;28;19948;-66
2021/10/02 06:26:11;;;;;;;;;;;12.50;1.00;;;;;;5057779;28;19958;-66
2021/10/02 06:28:36;;;;;;;;;;;12.60;1.00;;;;;;5057375;28;19924;-66
2021/10/02 06:31:02;;;;;;;;;;;12.60;1.00;;;;;;5059157;28;19920;-66
2021/10/02 06:33:28;;;;;;;;;;;12.70;1.00;;;;;;5049571;28;19913;-66
2021/10/02 06:35:54;;;;;;;;;;;12.80;1.00;;;;;;5049717;28;19916;-66
2021/10/02 06:38:20;;;;;;;;;;;12.80;1.00;;;;;;5050409;28;19908;-66
2021/10/02 06:40:45;;;;;;;;;;;12.90;1.00;;;;;;5050297;28;19917;-66
2021/10/02 06:43:11;;;;;;;;;;;12.90;1.00;;;;;;5049211;28;19913;-66
2021/10/02 06:45:36;;;;;;;;;;;13.00;1.00;;;;;;5048800;28;19920;-66
2021/10/02 06:48:02;;;;;;;;;;;13.10;1.00;;;;;;5050222;28;20311;-66
2021/10/02 06:50:28;;;;;;;;;;;13.20;1.00;;;;;;5049864;28;19920;-66
2021/10/02 06:52:55;;;;;;;;;;;13.30;1.00;;;;;;5049851;28;19909;-66
2021/10/02 06:55:20;;;;;;;;;;;13.50;1.00;;;;;;5050838;28;19966;-66
2021/10/02 06:57:46;;;;;;;;;;;13.70;1.00;;;;;;5049642;28;19909;-66
2021/10/02 07:00:12;;;;;;;;;;;13.80;1.00;;;;;;5049729;28;20000;-66
2021/10/02 07:02:41;;;;;;;;;;;13.90;99.90;;;;;;5049500;28;19913;-66
2021/10/02 07:05:07;;;;;;;;;;;14.10;99.90;;;;;;5033186;28;19909;-66
2021/10/02 07:07:32;;;;;;;;;;;14.30;99.90;;;;;;5030712;28;20393;-66
2021/10/02 07:09:58;;;;;;;;;;;14.60;1.00;;;;;;5033243;28;20012;-66
2021/10/02 07:12:23;;;;;;;;;;;14.90;99.90;;;;;;5048913;28;19913;-66
2021/10/02 07:14:49;;;;;;;;;;;15.20;99.90;;;;;;5048844;28;19931;-66
2021/10/02 07:17:14;;;;;;;;;;;15.50;99.90;;;;;;5050121;28;19949;-66
2021/10/02 07:19:40;;;;;;;;;;;15.70;99.90;;;;;;5049224;28;19915;-67
2021/10/02 07:22:06;;;;;;;;;;;15.90;1.00;;;;;;5048109;28;20262;-66
2021/10/02 07:24:31;;;;;;;;;;;15.90;99.90;;;;;;5049739;28;19921;-67
2021/10/02 07:26:57;;;;;;;;;;;15.90;99.90;;;;;;5049535;28;19984;-66
2021/10/02 07:29:22;;;;;;;;;;;16.00;99.90;;;;;;5049264;28;19912;-66
2021/10/02 07:31:49;;;;;;;;;;;15.90;77.20;;;;;;5052218;28;19982;-66
2021/10/02 07:34:15;;;;;;;;;;;15.80;99.90;;;;;;5052431;28;20396;-66
2021/10/02 07:36:41;;;;;;;;;;;15.70;99.90;;;;;;5049229;28;20384;-66
2021/10/02 07:39:07;;;;;;;;;;;15.60;99.90;;;;;;5049836;28;19995;-65
2021/10/02 07:41:36;;;;;;;;;;;15.70;1.00;;;;;;5049270;28;19943;-66
2021/10/02 07:44:03;;;;;;;;;;;15.80;1.00;;;;;;5048278;28;19916;-66
2021/10/02 07:46:30;;;;;;;;;;;15.90;1.00;;;;;;5053322;28;19919;-67
2021/10/02 07:48:56;;;;;;;;;;;15.90;1.00;;;;;;5054201;28;20369;-66
2021/10/02 07:51:23;;;;;;;;;;;15.80;1.00;;;;;;5048854;28;19916;-67
2021/10/02 07:53:50;;;;;;;;;;;15.80;1.00;;;;;;5065251;28;19991;-66
2021/10/02 07:56:16;;;;;;;;;;;15.90;1.00;;;;;;5069310;28;19913;-67
2021/10/02 07:58:42;;;;;;;;;;;16.00;1.00;;;;;;5069309;28;20604;-66
2021/10/02 08:01:07;;;;;;;;;;;16.30;99.90;;;;;;5068281;28;19954;-66
2021/10/02 08:03:33;;;;;;;;;;;16.40;99.90;;;;;;5056295;28;19913;-66
2021/10/02 08:05:59;;;;;;;;;;;16.50;78.50;;;;;;5048806;28;19909;-66
2021/10/02 08:08:25;;;;;;;;;;;16.50;54.60;;;;;;5049354;28;19940;-66
2021/10/02 08:10:51;;;;;;;;;;;16.50;21.20;;;;;;5048753;28;20372;-66
2021/10/02 08:13:17;;;;;;;;;;;16.60;1.00;;;;;;5048138;28;19908;-67
2021/10/02 08:15:44;;;;;;;;;;;16.80;1.00;;;;;;5047288;28;19921;-67
2021/10/02 08:18:11;;;;;;;;;;;16.90;1.00;;;;;;5048404;28;20016;-66
2021/10/02 08:20:37;;;;;;;;;;;16.90;1.00;;;;;;5047151;28;19937;-67
2021/10/02 08:23:03;;;;;;;;;;;17.00;1.00;;;;;;5048120;28;19924;-66
2021/10/02 08:25:30;;;;;;;;;;;17.30;1.00;;;;;;5048277;28;19917;-67
2021/10/02 08:27:57;;;;;;;;;;;17.80;99.90;;;;;;5048286;28;20400;-67
2021/10/02 08:30:23;;;;;;;;;;;18.10;99.90;;;;;;5047554;28;19909;-67
2021/10/02 08:32:48;;;;;;;;;;;18.80;16.50;;;;;;5047658;28;19908;-67
2021/10/02 08:35:14;;;;;;;;;;;19.80;1.00;;;;;;5047862;28;19974;-67
2021/10/02 08:37:40;;;;;;;;;;;20.00;1.00;;;;;;5048675;28;20392;-67
2021/10/02 08:40:07;;;;;;;;;;;22.20;99.90;;;;;;5048683;28;19908;-67
2021/10/02 08:42:36;;;;;;;;;;;23.80;99.90;;;;;;5047430;28;19925;-67
2021/10/02 08:45:01;;;;;;;;;;;25.30;99.90;;;;;;5047694;28;20387;-67
2021/10/02 08:47:27;;;;;;;;;;;25.80;99.90;;;;;;5048749;28;19939;-67
2021/10/02 08:49:54;;;;;;;;;;;25.60;99.90;;;;;;5048604;28;19909;-67
2021/10/02 08:52:20;;;;;;;;;;;26.40;99.90;;;;;;5047255;28;19909;-67
2021/10/02 08:54:48;;;;;;;;;;;29.60;99.90;;;;;;5048169;28;20026;-67
2021/10/02 08:57:21;;;;;;;;;;;28.70;99.90;;;;;;5048184;28;19909;-67
2021/10/02 08:59:47;;;;;;;;;;;29.30;99.90;;;;;;5047223;28;19920;-67
2021/10/02 09:02:12;;;;;;;;;;;29.70;99.90;;;;;;5047492;28;20288;-67
2021/10/02 09:04:38;;;;;;;;;;;29.20;99.90;;;;;;5047862;28;20010;-65
2021/10/02 09:07:04;;;;;;;;;;;29.30;99.90;;;;;;5047697;28;19951;-66
2021/10/02 09:09:30;;;;;;;;;;;28.30;99.90;;;;;;5048321;28;19916;-66
2021/10/02 09:11:55;;;;;;;;;;;27.40;99.90;;;;;;5047341;28;19920;-65
2021/10/02 09:14:21;;;;;;;;;;;26.40;99.90;;;;;;5047711;28;20249;-65
2021/10/02 09:16:46;;;;;;;;;;;25.80;99.90;;;;;;5047598;28;19947;-66
2021/10/02 09:19:12;;;;;;;;;;;25.40;99.90;;;;;;5048645;28;19924;-67
2021/10/02 09:21:45;;;;;;;;;;;25.00;99.90;;;;;;5047926;28;19996;-65
2021/10/02 09:24:28;;;;;;;;;;;24.70;99.90;;;;;;5047575;28;19924;-65
2021/10/02 09:26:54;;;;;;;;;;;24.20;99.90;;;;;;5048137;28;20074;-65
2021/10/02 09:29:33;;;;;;;;;;;23.70;99.90;;;;;;5046623;28;20122;-67
2021/10/02 09:32:00;;;;;;;;;;;23.60;99.90;;;;;;5046963;28;19912;-67
2021/10/02 09:34:26;;;;;;;;;;;23.30;99.90;;;;;;5048208;28;19928;-67
2021/10/02 09:36:52;;;;;;;;;;;23.00;99.90;;;;;;5047673;28;19999;-67
2021/10/02 09:39:17;;;;;;;;;;;22.80;99.90;;;;;;5048354;28;19999;-67
2021/10/02 09:41:47;;;;;;;;;;;22.70;99.90;;;;;;5047997;28;19954;-68
2021/10/02 09:44:20;;;;;;;;;;;22.60;99.90;;;;;;5047624;28;19917;-68
2021/10/02 09:46:45;;;;;;;;;;;22.60;99.90;;;;;;5050724;28;19913;-68
2021/10/02 09:49:11;;;;;;;;;;;22.50;99.90;;;;;;5051687;28;19915;-68
2021/10/02 09:51:38;;;;;;;;;;;22.40;99.90;;;;;;5050731;28;19915;-67
2021/10/02 09:54:04;;;;;;;;;;;22.40;99.90;;;;;;5050201;28;19995;-67
2021/10/02 09:56:29;;;;;;;;;;;22.50;99.90;;;;;;5051378;28;19951;-67
2021/10/02 09:58:55;;;;;;;;;;;22.60;99.90;;;;;;5050796;28;19984;-67
2021/10/02 10:01:22;;;;;;;;;;;23.10;99.90;;;;;;5050335;28;19962;-67
2021/10/02 10:03:49;;;;;;;;;;;23.70;99.90;;;;;;5050266;28;19986;-67
2021/10/02 10:06:15;;;;;;;;;;;24.10;99.90;;;;;;5050593;28;19913;-68
2021/10/02 10:08:41;;;;;;;;;;;25.00;99.90;;;;;;5051299;28;20376;-67
2021/10/02 10:11:08;;;;;;;;;;;25.40;99.90;;;;;;5050960;28;19909;-68
2021/10/02 10:13:34;;;;;;;;;;;25.50;99.90;;;;;;5049974;28;19916;-65
2021/10/02 10:15:59;;;;;;;;;;;25.60;99.90;;;;;;5050013;28;20233;-68
2021/10/02 10:18:26;;;;;;;;;;;25.60;99.90;;;;;;5051348;28;19913;-68
2021/10/02 10:20:53;;;;;;;;;;;25.40;99.90;;;;;;5042012;28;19996;-67
2021/10/02 10:23:29;;;;;;;;;;;25.60;99.90;;;;;;5050057;28;20013;-68
2021/10/02 10:25:56;;;;;;;;;;;26.10;99.90;;;;;;5050962;28;19963;-68
2021/10/02 10:28:24;;;;;;;;;;;27.20;99.90;;;;;;5050511;28;19913;-68
2021/10/02 10:30:50;;;;;;;;;;;28.60;99.90;;;;;;5049806;28;19908;-68
2021/10/02 10:33:17;;;;;;;;;;;30.40;99.90;;;;;;5050142;28;20436;-65
2021/10/02 10:35:44;;;;;;;;;;;31.50;99.90;;;;;;5050364;28;19941;-65
2021/10/02 10:38:12;;;;;;;;;;;32.10;99.90;;;;;;5050922;28;19909;-66
2021/10/02 10:40:38;;;;;;;;;;;32.20;99.90;;;;;;5050534;28;19919;-66
2021/10/02 10:43:04;;;;;;;;;;;31.40;99.90;;;;;;5049423;28;19999;-66
2021/10/02 10:45:30;;;;;;;;;;;30.40;99.90;;;;;;5049574;28;19916;-66
2021/10/02 10:47:58;;;;;;;;;;;29.70;99.90;;;;;;5050578;28;19909;-66
2021/10/02 10:50:25;;;;;;;;;;;29.00;99.90;;;;;;5049983;28;19919;-66
2021/10/02 10:52:51;;;;;;;;;;;28.40;99.90;;;;;;5050095;28;19958;-67
2021/10/02 10:55:17;;;;;;;;;;;26.70;99.90;;;;;;5049952;28;20344;-67
2021/10/02 10:57:43;;;;;;;;;;;26.60;99.90;;;;;;5049367;28;20451;-67
2021/10/02 11:00:11;;;;;;;;;;;26.20;99.90;;;;;;5049904;28;20001;-67
2021/10/02 11:02:43;;;;;;;;;;;25.70;99.90;;;;;;5049594;28;19909;-67
2021/10/02 11:05:27;;;;;;;;;;;25.30;99.90;;;;;;5049645;28;19951;-67
2021/10/02 11:07:52;;;;;;;;;;;25.30;99.90;;;;;;5050211;28;19955;-67
2021/10/02 11:10:47;;;;;;;;;;;25.30;99.90;;;;;;5050186;28;19909;-67
2021/10/02 11:13:29;;;;;;;;;;;26.00;99.90;;;;;;5039814;28;19995;-67
2021/10/02 11:15:56;;;;;;;;;;;26.70;99.90;;;;;;5048888;28;19999;-67
2021/10/02 11:18:39;;;;;;;;;;;28.00;99.90;;;;;;5050722;28;19913;-67
2021/10/02 11:21:05;;;;;;;;;;;29.20;99.90;;;;;;5049626;28;19917;-67
2021/10/02 11:23:39;;;;;;;;;;;30.10;99.90;;;;;;5048646;28;19913;-67
2021/10/02 11:26:11;;;;;;;;;;;30.70;99.90;;;;;;5050435;28;19925;-68
2021/10/02 11:28:36;;;;;;;;;;;30.80;99.90;;;;;;5049805;28;20226;-67
2021/10/02 11:31:10;;;;;;;;;;;30.10;99.90;;;;;;5049143;28;19913;-67
2021/10/02 11:33:43;;;;;;;;;;;29.50;99.90;;;;;;5049240;28;19912;-67
2021/10/02 11:36:27;;;;;;;;;;;29.10;99.90;;;;;;5049558;28;19923;-67
2021/10/02 11:39:12;;;;;;;;;;;29.20;99.90;;;;;;5030254;28;20323;-67
2021/10/02 11:41:44;;;;;;;;;;;29.40;99.90;;;;;;5041126;28;19924;-67
2021/10/02 11:44:10;;;;;;;;;;;29.60;99.90;;;;;;5049101;28;19995;-67
2021/10/02 11:46:36;;;;;;;;;;;29.80;99.90;;;;;;5049182;28;19920;-67
2021/10/02 11:49:16;;;;;;;;;;;30.00;99.90;;;;;;5050035;28;19908;-67
2021/10/02 11:51:41;;;;;;;;;;;30.00;99.90;;;;;;5049697;28;20008;-67
2021/10/02 11:54:07;;;;;;;;;;;30.00;99.90;;;;;;5051200;28;19909;-67
2021/10/02 11:56:34;;;;;;;;;;;30.20;99.90;;;;;;5049782;28;19909;-68
2021/10/02 11:59:00;;;;;;;;;;;30.30;99.90;;;;;;5049326;28;19955;-66
2021/10/02 12:01:26;;;;;;;;;;;30.30;99.90;;;;;;5048613;28;19909;-67
2021/10/02 12:04:01;;;;;;;;;;;30.40;99.90;;;;;;5048620;28;19916;-66
2021/10/02 12:06:27;;;;;;;;;;;30.10;99.90;;;;;;5048856;28;20011;-66
2021/10/02 12:08:52;;;;;;;;;;;30.10;99.60;;;;;;5049173;28;20456;-66
2021/10/02 12:11:18;;;;;;;;;;;30.00;98.60;;;;;;5049086;28;20416;-65
2021/10/02 12:13:45;;;;;;;;;;;29.60;97.00;;;;;;5047924;28;19999;-65
2021/10/02 12:16:14;;;;;;;;;;;27.60;95.70;;;;;;5048298;28;19916;-65
2021/10/02 12:18:49;;;;;;;;;;;27.80;96.70;;;;;;5049087;28;19986;-66
2021/10/02 12:21:27;;;;;;;;;;;28.00;98.10;;;;;;5049110;28;20239;-66
2021/10/02 12:24:02;;;;;;;;;;;28.20;97.60;;;;;;5047281;28;19919;-65
2021/10/02 12:26:28;;;;;;;;;;;28.00;96.90;;;;;;5048562;28;20003;-66
2021/10/02 12:29:01;;;;;;;;;;;28.10;96.80;;;;;;5048557;28;19909;-67
2021/10/02 12:31:45;;;;;;;;;;;28.30;96.20;;;;;;5047560;28;19908;-66
2021/10/02 12:34:15;;;;;;;;;;;28.40;95.50;;;;;;5048236;28;19909;-66
2021/10/02 12:36:41;;;;;;;;;;;28.50;94.60;;;;;;5048085;28;20007;-66
2021/10/02 12:39:07;;;;;;;;;;;28.20;93.90;;;;;;5048793;28;20368;-66
2021/10/02 12:41:36;;;;;;;;;;;27.90;93.60;;;;;;5048441;28;19970;-66
2021/10/02 12:44:02;;;;;;;;;;;26.30;92.20;;;;;;5047024;28;20294;-66
2021/10/02 12:46:28;;;;;;;;;;;26.40;93.90;;;;;;5048106;28;19909;-66
2021/10/02 12:48:53;;;;;;;;;;;26.70;95.60;;;;;;5048516;28;19928;-66
2021/10/02 12:51:19;;;;;;;;;;;27.00;95.60;;;;;;5047975;28;19991;-66
2021/10/02 12:53:44;;;;;;;;;;;27.30;95.10;;;;;;5047898;28;19974;-66
2021/10/02 12:56:14;;;;;;;;;;;27.00;93.90;;;;;;5048572;28;19917;-66
2021/10/02 12:58:39;;;;;;;;;;;26.80;93.20;;;;;;5048514;28;19912;-66
2021/10/02 13:01:05;;;;;;;;;;;26.60;92.90;;;;;;5047656;28;19940;-67
2021/10/02 13:03:36;;;;;;;;;;;26.00;92.90;;;;;;5047666;28;20381;-66
2021/10/02 13:06:02;;;;;;;;;;;25.60;92.50;;;;;;5048107;28;19909;-66
2021/10/02 13:08:28;;;;;;;;;;;25.50;93.50;;;;;;5048916;28;19962;-66
2021/10/02 13:10:53;;;;;;;;;;;25.60;94.50;;;;;;5048610;28;19909;-66
2021/10/02 13:13:20;;;;;;;;;;;25.80;95.00;;;;;;5047844;28;19909;-67
2021/10/02 13:15:48;;;;;;;;;;;26.00;95.10;;;;;;5047532;28;19909;-67
2021/10/02 13:18:15;;;;;;;;;;;26.20;95.80;;;;;;5048649;28;20444;-67
2021/10/02 13:20:40;;;;;;;;;;;26.30;95.60;;;;;;5048931;28;19909;-68
2021/10/02 13:23:07;;;;;;;;;;;26.50;95.40;;;;;;5051923;28;19965;-67
2021/10/02 13:25:40;;;;;;;;;;;26.00;93.80;;;;;;5051874;28;19925;-67
2021/10/02 13:28:06;;;;;;;;;;;24.60;92.30;;;;;;5051630;28;19909;-67
2021/10/02 13:30:33;;;;;;;;;;;23.90;93.00;;;;;;5051052;28;19920;-67
2021/10/02 13:33:11;;;;;;;;;;;23.80;94.50;;;;;;5051471;28;19915;-67
2021/10/02 13:35:38;;;;;;;;;;;23.50;95.60;;;;;;5051566;28;19913;-67
2021/10/02 13:38:04;;;;;;;;;;;23.40;97.20;;;;;;5051927;28;19909;-67
2021/10/02 13:40:34;;;;;;;;;;;23.40;98.50;;;;;;5051808;28;19920;-67
2021/10/02 13:43:02;;;;;;;;;;;23.30;98.90;;;;;;5050513;28;20380;-67
2021/10/02 13:45:29;;;;;;;;;;;23.10;99.30;;;;;;5050952;28;19958;-67
2021/10/02 13:47:56;;;;;;;;;;;23.00;99.90;;;;;;5052106;28;19913;-67
2021/10/02 13:50:22;;;;;;;;;;;23.00;99.90;;;;;;5050780;28;19920;-67
2021/10/02 13:52:47;;;;;;;;;;;23.10;99.90;;;;;;5051232;28;19909;-67
2021/10/02 13:55:13;;;;;;;;;;;22.90;99.90;;;;;;5051344;28;19955;-67
2021/10/02 13:57:38;;;;;;;;;;;22.80;99.90;;;;;;5051222;28;19983;-67
2021/10/02 14:00:04;;;;;;;;;;;22.80;99.90;;;;;;5050765;28;19989;-67
2021/10/02 14:02:30;;;;;;;;;;;22.80;99.90;;;;;;5050684;28;19925;-67
2021/10/02 14:04:55;;;;;;;;;;;22.60;99.90;;;;;;5050995;28;20339;-67
2021/10/02 14:07:21;;;;;;;;;;;22.50;99.90;;;;;;5051922;28;19992;-67
2021/10/02 14:09:46;;;;;;;;;;;22.40;99.90;;;;;;5051454;28;20027;-67
2021/10/02 14:12:13;;;;;;;;;;;22.30;99.90;;;;;;5050450;28;19909;-67
2021/10/02 14:14:42;;;;;;;;;;;22.20;99.90;;;;;;5051069;28;20407;-67
2021/10/02 14:17:07;;;;;;;;;;;22.20;99.90;;;;;;5051195;28;19912;-67
2021/10/02 14:19:33;;;;;;;;;;;22.20;99.90;;;;;;5051046;28;19932;-67
2021/10/02 14:21:59;;;;;;;;;;;22.20;99.90;;;;;;5050361;28;20479;-67
2021/10/02 14:24:24;;;;;;;;;;;22.30;99.90;;;;;;5050614;28;20658;-67
2021/10/02 14:26:50;;;;;;;;;;;22.30;99.90;;;;;;5051022;28;19909;-67
2021/10/02 14:29:15;;;;;;;;;;;22.40;99.90;;;;;;5051036;28;19955;-67
2021/10/02 14:31:41;;;;;;;;;;;22.50;99.90;;;;;;5050497;28;19916;-67
2021/10/02 14:34:07;;;;;;;;;;;22.70;99.90;;;;;;5050567;28;20019;-67
2021/10/02 14:36:36;;;;;;;;;;;22.70;99.90;;;;;;5050651;28;19909;-67
2021/10/02 14:39:02;;;;;;;;;;;22.70;99.90;;;;;;5051782;28;19909;-67
2021/10/02 14:41:28;;;;;;;;;;;22.70;99.90;;;;;;5050856;28;20012;-67
2021/10/02 14:43:54;;;;;;;;;;;22.60;99.90;;;;;;5050104;28;19956;-67
2021/10/02 14:46:21;;;;;;;;;;;22.60;99.90;;;;;;5050063;28;19947;-67
2021/10/02 14:48:47;;;;;;;;;;;22.60;99.90;;;;;;5049388;28;20012;-67
2021/10/02 14:51:12;;;;;;;;;;;22.50;99.90;;;;;;5050414;28;20027;-67
2021/10/02 14:53:41;;;;;;;;;;;22.40;99.90;;;;;;5050461;28;19928;-67
2021/10/02 14:56:07;;;;;;;;;;;22.30;99.90;;;;;;5050376;28;20419;-67
2021/10/02 14:58:34;;;;;;;;;;;22.20;99.90;;;;;;5050277;28;19909;-67
2021/10/02 15:01:00;;;;;;;;;;;22.10;99.90;;;;;;5049717;28;19920;-67
2021/10/02 15:03:25;;;;;;;;;;;22.00;99.90;;;;;;5049945;28;19916;-68
2021/10/02 15:05:51;;;;;;;;;;;22.00;99.90;;;;;;5050467;28;19996;-67
2021/10/02 15:08:17;;;;;;;;;;;22.00;99.90;;;;;;5050805;28;20242;-66
2021/10/02 15:10:42;;;;;;;;;;;21.90;99.90;;;;;;5050088;28;19919;-66
2021/10/02 15:13:08;;;;;;;;;;;22.00;99.90;;;;;;5049072;28;20034;-66
2021/10/02 15:15:33;;;;;;;;;;;21.90;99.90;;;;;;5049841;28;20346;-66
2021/10/02 15:17:59;;;;;;;;;;;21.90;99.90;;;;;;5050353;28;19924;-66
2021/10/02 15:20:25;;;;;;;;;;;21.90;99.90;;;;;;5048798;28;20269;-66